Time;durP1;ratioP1;P1;durP2;ratioP2;P2;SDS_P1;SDS_P2;PMS_P1;PMS_P2;Temp;Humidity;BMP_temperature;BMP_pressure;BME280_temperature;BME280_humidity;BME280_pressure;Samples;Min_cycle;Max_cycle;Signal;HPM_P1;HPM_P2
2022/01/23 00:00:27;;;;;;;24.95;11.25;;;0.70;99.90;;;;;;5130480;28;20217;-75
2022/01/23 00:02:55;;;;;;;5.55;4.20;;;0.70;99.90;;;;;;5130643;28;20157;-74
2022/01/23 00:05:24;;;;;;;6.20;4.25;;;0.70;99.90;;;;;;5111788;28;20191;-74
2022/01/23 00:07:51;;;;;;;8.20;4.28;;;0.70;99.90;;;;;;5095104;28;20203;-74
2022/01/23 00:10:17;;;;;;;5.50;3.83;;;0.80;99.90;;;;;;5108767;28;20185;-75
2022/01/23 00:12:54;;;;;;;6.47;3.28;;;0.80;99.90;;;;;;5109884;28;20632;-74
2022/01/23 00:18:05;;;;;;;5.22;3.30;;;0.90;99.90;;;;;;5110033;28;20162;-75
2022/01/23 00:20:31;;;;;;;5.82;2.67;;;1.00;99.90;;;;;;5091676;28;20623;-75
2022/01/23 00:23:01;;;;;;;7.60;3.67;;;1.00;99.90;;;;;;5109918;28;20159;-73
2022/01/23 00:30:59;;;;;;;3.33;2.65;;;1.10;99.90;;;;;;5109892;28;20155;-76
2022/01/23 00:33:26;;;;;;;3.90;2.42;;;1.10;99.90;;;;;;5109746;28;20211;-76
2022/01/23 00:35:53;;;;;;;3.50;2.50;;;1.10;99.90;;;;;;5090758;28;20640;-75
2022/01/23 00:38:19;;;;;;;2.78;2.50;;;1.10;99.90;;;;;;5109530;28;20147;-76
2022/01/23 00:40:47;;;;;;;5.97;3.10;;;1.20;99.90;;;;;;5109372;28;20183;-76
2022/01/23 00:43:38;;;;;;;3.28;2.45;;;1.10;99.90;;;;;;5109580;28;20156;-75
2022/01/23 00:48:50;;;;;;;5.03;2.33;;;1.20;99.90;;;;;;5109788;28;20158;-76
2022/01/23 00:51:16;;;;;;;2.75;1.83;;;1.20;99.90;;;;;;5091330;28;20167;-75
2022/01/23 00:53:42;;;;;;;5.18;2.70;;;1.20;99.90;;;;;;5109420;28;20170;-76
2022/01/23 00:56:09;;;;;;;3.67;2.55;;;1.20;99.90;;;;;;5108739;28;20266;-76
2022/01/23 00:58:35;;;;;;;3.42;2.20;;;1.20;99.90;;;;;;5091212;28;20190;-76
2022/01/23 01:01:01;;;;;;;3.78;2.13;;;1.20;99.90;;;;;;5109116;28;20227;-76
2022/01/23 01:03:26;;;;;;;3.08;2.42;;;1.10;99.90;;;;;;5109387;28;20207;-76
2022/01/23 01:05:52;;;;;;;5.45;2.72;;;1.10;99.90;;;;;;5108853;28;20191;-76
2022/01/23 01:08:18;;;;;;;3.90;2.30;;;1.10;99.90;;;;;;5109911;28;20160;-75
2022/01/23 01:11:05;;;;;;;2.72;2.28;;;1.00;99.90;;;;;;5092002;28;20230;-76
2022/01/23 01:13:52;;;;;;;3.22;2.65;;;1.00;99.90;;;;;;5109853;28;20155;-76
2022/01/23 01:33:27;;;;;;;2.88;2.25;;;1.20;99.90;;;;;;5113450;28;20155;-76
2022/01/23 01:35:29;;;;;;;3.88;2.55;;;1.10;99.90;;;;;;5101218;28;20242;-75
2022/01/23 01:37:56;;;;;;;2.08;1.83;;;1.10;99.90;;;;;;5095248;28;20191;-76
2022/01/23 01:40:24;;;;;;;3.15;1.98;;;1.10;99.90;;;;;;5095116;28;20163;-76
2022/01/23 01:42:53;;;;;;;4.30;2.45;;;1.20;99.90;;;;;;5113254;28;20152;-77
2022/01/23 01:45:30;;;;;;;2.78;1.90;;;1.20;99.90;;;;;;5113004;28;20218;-75
2022/01/23 01:48:00;;;;;;;2.22;1.83;;;1.20;99.90;;;;;;5112982;28;20231;-76
2022/01/23 01:50:28;;;;;;;4.30;2.15;;;1.20;99.90;;;;;;5113135;28;20615;-76
2022/01/23 01:52:54;;;;;;;2.00;1.75;;;1.20;99.90;;;;;;5120570;28;20206;-76
2022/01/23 01:55:26;;;;;;;2.58;2.38;;;1.10;99.90;;;;;;5133151;28;20183;-76
2022/01/23 01:58:00;;;;;;;2.55;1.92;;;1.10;99.90;;;;;;5133280;28;20175;-76
2022/01/23 02:08:47;;;;;;;3.35;2.55;;;1.10;99.90;;;;;;5030373;28;20172;-77
2022/01/23 02:11:22;;;;;;;4.53;2.38;;;1.00;99.90;;;;;;5030296;28;20209;-77
2022/01/23 02:13:57;;;;;;;6.50;2.67;;;1.10;99.90;;;;;;5013706;28;20189;-76
2022/01/23 02:54:45;;;;;;;2.88;2.17;;;0.10;99.90;;;;;;5132162;28;20178;-73
2022/01/23 02:57:12;;;;;;;2.00;1.80;;;0.00;99.90;;;;;;5131955;28;20183;-73
2022/01/23 02:59:40;;;;;;;1.90;1.75;;;-0.10;99.90;;;;;;5131926;28;20151;-73
2022/01/23 03:04:39;;;;;;;3.42;2.03;;;-0.20;99.90;;;;;;5131949;28;20186;-73
2022/01/23 03:13:08;;;;;;;2.85;1.63;;;-0.50;99.90;;;;;;5131956;28;20170;-73
2022/01/23 03:15:13;;;;;;;3.83;2.47;;;-0.70;99.90;;;;;;5131267;28;20213;-73
2022/01/23 03:29:02;;;;;;;4.93;3.08;;;-1.10;99.90;;;;;;5131520;28;20159;-73
2022/01/23 03:31:30;;;;;;;4.07;2.75;;;-1.10;99.90;;;;;;5130936;28;20185;-73
2022/01/23 03:33:57;;;;;;;5.05;3.35;;;-1.10;99.90;;;;;;5131246;28;20178;-73
2022/01/23 03:36:23;;;;;;;5.47;3.10;;;-1.10;99.90;;;;;;5131232;28;20226;-72
2022/01/23 03:38:49;;;;;;;6.65;3.10;;;-1.30;99.90;;;;;;5112859;28;20177;-72
2022/01/23 03:41:15;;;;;;;6.97;3.05;;;-1.40;99.90;;;;;;5131196;28;20147;-73
2022/01/23 03:43:41;;;;;;;4.18;2.42;;;-1.40;99.90;;;;;;5112678;28;20281;-73
2022/01/23 03:51:38;;;;;;;4.38;2.78;;;-1.50;99.90;;;;;;5131046;28;20254;-73
2022/01/23 03:54:04;;;;;;;3.83;2.85;;;-1.60;99.90;;;;;;5130897;28;20166;-73
2022/01/23 03:56:31;;;;;;;4.88;2.55;;;-1.70;99.90;;;;;;5130774;28;20632;-73
2022/01/23 03:58:58;;;;;;;4.53;2.83;;;-1.70;99.90;;;;;;5130889;28;20147;-73
2022/01/23 04:01:24;;;;;;;4.63;2.40;;;-1.70;99.90;;;;;;5130599;28;20211;-74
2022/01/23 04:03:53;;;;;;;6.03;2.92;;;-1.70;99.90;;;;;;5130823;28;20151;-72
2022/01/23 04:06:19;;;;;;;3.13;2.30;;;-1.70;99.90;;;;;;5130597;28;20216;-73
2022/01/23 04:08:45;;;;;;;5.28;3.25;;;-1.80;99.90;;;;;;5130621;28;20162;-73
2022/01/23 04:11:11;;;;;;;4.05;2.75;;;-1.80;99.90;;;;;;5130521;28;20171;-73
2022/01/23 04:14:02;;;;;;;4.22;2.90;;;-1.80;99.90;;;;;;5112269;28;20650;-73
2022/01/23 04:19:16;;;;;;;6.20;3.17;;;-1.80;99.90;;;;;;5110075;28;20187;-73
2022/01/23 04:59:52;;;;;;;4.13;2.60;;;-1.30;99.90;;;;;;5109154;28;20221;-73
2022/01/23 05:05:03;;;;;;;5.70;3.08;;;-1.20;99.90;;;;;;5109438;28;20147;-73
2022/01/23 05:07:33;;;;;;;5.07;2.78;;;-1.20;99.90;;;;;;5109311;28;20156;-73
2022/01/23 05:09:59;;;;;;;4.05;2.72;;;-1.20;99.90;;;;;;5090680;28;20178;-73
2022/01/23 05:12:30;;;;;;;2.47;2.20;;;-1.20;99.90;;;;;;5091021;28;20178;-73
2022/01/23 05:14:57;;;;;;;4.10;2.55;;;-1.20;99.90;;;;;;5109290;28;20152;-74
2022/01/23 05:17:23;;;;;;;2.92;2.55;;;-1.10;99.90;;;;;;5091127;28;20628;-73
2022/01/23 05:19:49;;;;;;;7.20;2.85;;;-1.10;99.90;;;;;;5091032;28;20159;-73
2022/01/23 05:25:03;;;;;;;3.42;2.65;;;-1.10;99.90;;;;;;5109288;28;20159;-74
2022/01/23 05:27:31;;;;;;;4.63;3.05;;;-1.10;99.90;;;;;;5091011;28;20171;-73
2022/01/23 05:29:58;;;;;;;2.95;2.50;;;-1.10;99.90;;;;;;5109122;28;20226;-73
2022/01/23 05:32:34;;;;;;;5.38;2.35;;;-1.10;99.90;;;;;;5109260;28;20155;-73
2022/01/23 05:35:00;;;;;;;3.17;2.47;;;-1.10;99.90;;;;;;5109088;28;20205;-73
2022/01/23 05:37:25;;;;;;;5.53;2.65;;;-1.00;99.90;;;;;;5090838;28;20194;-72
2022/01/23 05:39:51;;;;;;;3.45;2.60;;;-1.00;99.90;;;;;;5109150;28;20156;-72
2022/01/23 05:42:17;;;;;;;4.78;2.53;;;-1.00;99.90;;;;;;5109029;28;20189;-73
2022/01/23 05:44:43;;;;;;;4.65;2.45;;;-1.10;99.90;;;;;;5108967;28;20163;-73
2022/01/23 05:47:11;;;;;;;4.90;2.55;;;-1.10;99.90;;;;;;5108961;28;20189;-73
2022/01/23 05:49:37;;;;;;;4.25;2.40;;;-1.10;99.90;;;;;;5109021;28;20164;-73
2022/01/23 05:52:05;;;;;;;3.10;2.42;;;-1.20;99.90;;;;;;5109112;28;20242;-73
2022/01/23 05:54:32;;;;;;;2.42;1.95;;;-1.20;99.90;;;;;;5107648;28;20171;-73
2022/01/23 05:56:57;;;;;;;4.88;2.85;;;-1.10;99.90;;;;;;5108785;28;20570;-74
2022/01/23 05:59:23;;;;;;;4.25;2.53;;;-1.10;99.90;;;;;;5108554;28;20167;-74
2022/01/23 06:01:51;;;;;;;2.42;2.08;;;-1.00;99.90;;;;;;5108858;28;20182;-73
2022/01/23 06:04:19;;;;;;;2.80;2.47;;;-0.90;99.90;;;;;;5108952;28;20175;-73
2022/01/23 06:06:49;;;;;;;3.97;2.78;;;-0.90;99.90;;;;;;5108711;28;20187;-73
2022/01/23 06:09:16;;;;;;;4.97;2.53;;;-1.00;99.90;;;;;;5111958;28;20242;-73
2022/01/23 06:11:42;;;;;;;3.42;2.38;;;-1.00;99.90;;;;;;5112617;28;20152;-72
2022/01/23 06:14:09;;;;;;;3.15;2.40;;;-1.00;99.90;;;;;;5094115;28;20191;-73
2022/01/23 06:16:39;;;;;;;4.70;2.72;;;-1.00;99.90;;;;;;5112281;28;20641;-73
2022/01/23 06:19:05;;;;;;;3.33;2.35;;;-1.00;99.90;;;;;;5111158;28;20170;-73
2022/01/23 06:21:32;;;;;;;4.80;3.38;;;-1.00;99.90;;;;;;5112340;28;20160;-74
2022/01/23 06:24:07;;;;;;;4.85;3.60;;;-0.90;99.90;;;;;;5112328;28;20182;-73
2022/01/23 06:26:48;;;;;;;4.07;2.60;;;-0.90;99.90;;;;;;5112203;28;20226;-73
2022/01/23 06:29:16;;;;;;;2.92;2.38;;;-1.00;99.90;;;;;;5112092;28;20163;-73
2022/01/23 06:31:46;;;;;;;2.60;2.40;;;-0.90;99.90;;;;;;5111987;28;20160;-73
2022/01/23 06:34:14;;;;;;;4.45;3.13;;;-0.90;99.90;;;;;;5110868;28;20195;-73
2022/01/23 06:36:41;;;;;;;6.28;3.85;;;-1.00;99.90;;;;;;5111746;28;20205;-74
2022/01/23 06:39:10;;;;;;;6.78;3.75;;;-1.10;99.90;;;;;;5112009;28;20186;-72
2022/01/23 06:41:37;;;;;;;4.97;2.88;;;-1.00;99.90;;;;;;5093676;28;20231;-73
2022/01/23 06:44:04;;;;;;;8.70;4.32;;;-1.00;99.90;;;;;;5111958;28;20163;-73
2022/01/23 06:46:31;;;;;;;14.63;7.32;;;-1.00;99.90;;;;;;5111778;28;20213;-73
2022/01/23 06:48:57;;;;;;;8.43;5.00;;;-0.90;99.90;;;;;;5111929;28;20215;-73
2022/01/23 06:51:24;;;;;;;6.03;3.35;;;-0.90;99.90;;;;;;5093570;28;20167;-73
2022/01/23 06:53:50;;;;;;;6.50;3.78;;;-0.80;99.90;;;;;;5110353;28;20175;-73
2022/01/23 06:56:15;;;;;;;6.75;3.35;;;-0.80;99.90;;;;;;5111583;28;20226;-73
2022/01/23 06:58:41;;;;;;;5.10;3.72;;;-0.70;99.90;;;;;;5093370;28;20194;-72
2022/01/23 07:01:07;;;;;;;5.57;3.97;;;-0.70;99.90;;;;;;5111354;28;20215;-72
2022/01/23 07:03:35;;;;;;;5.65;3.85;;;-0.70;99.90;;;;;;5111514;28;20160;-72
2022/01/23 07:06:01;;;;;;;7.03;3.78;;;-0.60;99.90;;;;;;5110075;28;20250;-74
2022/01/23 07:08:27;;;;;;;6.40;3.63;;;-0.50;99.90;;;;;;5111476;28;20160;-73
2022/01/23 07:10:54;;;;;;;6.05;3.78;;;-0.50;99.90;;;;;;5111355;28;20179;-72
2022/01/23 07:13:20;;;;;;;7.90;4.03;;;-0.40;99.90;;;;;;5093048;28;20237;-73
2022/01/23 07:15:47;;;;;;;11.65;4.30;;;-0.30;99.90;;;;;;5093029;28;20346;-74
2022/01/23 07:18:15;;;;;;;6.07;4.50;;;-0.30;99.90;;;;;;5111059;28;20308;-75
2022/01/23 07:20:42;;;;;;;4.05;3.10;;;-0.20;99.90;;;;;;5111222;28;20158;-75
2022/01/23 07:23:08;;;;;;;6.93;4.60;;;-0.20;99.90;;;;;;5111071;28;20151;-75
2022/01/23 07:25:34;;;;;;;5.90;3.90;;;-0.20;99.90;;;;;;5117020;28;20217;-74
2022/01/23 07:28:02;;;;;;;5.38;3.92;;;-0.10;99.90;;;;;;5130071;28;20647;-76
2022/01/23 07:30:43;;;;;;;7.15;4.05;;;0.00;99.90;;;;;;5130118;28;20173;-75
2022/01/23 07:33:09;;;;;;;9.32;4.55;;;0.10;99.90;;;;;;5112310;28;20250;-75
2022/01/23 07:35:35;;;;;;;7.47;5.00;;;0.20;99.90;;;;;;5130753;28;20173;-76
2022/01/23 07:38:00;;;;;;;7.63;3.83;;;0.20;99.90;;;;;;5130577;28;20158;-76
2022/01/23 07:40:27;;;;;;;10.77;3.83;;;0.20;99.90;;;;;;5112333;28;20193;-75
2022/01/23 07:42:53;;;;;;;5.93;3.88;;;0.30;99.90;;;;;;5130881;28;20162;-76
2022/01/23 07:45:18;;;;;;;9.23;3.97;;;0.30;99.90;;;;;;5129253;28;20195;-76
2022/01/23 07:47:44;;;;;;;6.65;4.30;;;0.30;99.90;;;;;;5112308;28;20224;-76
2022/01/23 07:50:11;;;;;;;6.00;4.57;;;0.40;99.90;;;;;;5130500;28;20167;-75
2022/01/23 07:52:38;;;;;;;5.75;4.10;;;0.50;99.90;;;;;;5110031;28;20187;-75
2022/01/23 07:55:07;;;;;;;5.85;3.63;;;0.60;99.90;;;;;;5102351;28;20202;-74
2022/01/23 07:57:33;;;;;;;7.50;4.90;;;0.80;99.90;;;;;;5130291;28;20277;-74
2022/01/23 08:00:00;;;;;;;4.82;4.00;;;0.90;99.90;;;;;;5111707;28;20277;-75
2022/01/23 08:02:26;;;;;;;8.35;3.88;;;1.10;99.90;;;;;;5137689;27;20177;-75
2022/01/23 08:04:52;;;;;;;6.40;4.10;;;1.10;99.90;;;;;;5123917;28;20178;-76
2022/01/23 08:09:49;;;;;;;5.35;3.80;;;0.80;99.90;;;;;;5132705;27;20267;-74
2022/01/23 08:12:17;;;;;;;8.23;4.28;;;0.60;99.90;;;;;;5147258;27;20162;-75
2022/01/23 08:14:43;;;;;;;7.40;4.43;;;0.60;99.90;;;;;;5130212;28;20198;-75
2022/01/23 08:17:09;;;;;;;7.82;4.32;;;0.70;99.90;;;;;;5129374;28;20888;-76
2022/01/23 08:19:35;;;;;;;6.47;4.53;;;0.70;99.90;;;;;;5107910;28;20194;-75
2022/01/23 08:22:00;;;;;;;4.63;3.67;;;1.00;99.90;;;;;;5127211;28;20170;-76
2022/01/23 08:24:26;;;;;;;6.68;4.38;;;1.30;99.90;;;;;;5129941;28;20292;-76
2022/01/23 08:26:52;;;;;;;7.63;4.13;;;1.50;99.90;;;;;;5109563;28;20241;-73
2022/01/23 08:29:18;;;;;;;8.35;4.93;;;1.70;99.90;;;;;;5111321;28;20170;-76
2022/01/23 08:31:45;;;;;;;9.23;5.05;;;2.00;99.90;;;;;;5108196;28;20164;-75
2022/01/23 08:34:12;;;;;;;8.23;5.22;;;2.20;99.90;;;;;;5107259;28;20175;-75
2022/01/23 08:36:37;;;;;;;8.48;5.70;;;2.10;99.90;;;;;;5098473;28;20232;-74
2022/01/23 08:39:05;;;;;;;10.05;4.57;;;1.90;99.90;;;;;;5110075;28;20254;-75
2022/01/23 08:41:49;;;;;;;9.43;5.13;;;1.90;99.90;;;;;;5129798;28;20620;-75
2022/01/23 08:44:26;;;;;;;8.77;5.28;;;1.90;99.90;;;;;;5128900;28;20303;-74
2022/01/23 08:46:53;;;;;;;7.50;4.75;;;1.80;99.90;;;;;;5129678;28;20165;-75
2022/01/23 08:49:21;;;;;;;7.10;4.90;;;1.60;99.90;;;;;;5111266;28;20202;-75
2022/01/23 08:51:50;;;;;;;5.55;4.15;;;1.50;99.90;;;;;;5129588;28;20174;-74
2022/01/23 08:54:16;;;;;;;4.95;4.07;;;1.60;99.90;;;;;;5129666;28;20158;-74
2022/01/23 08:56:43;;;;;;;6.07;3.85;;;1.60;99.90;;;;;;5111244;28;20198;-75
2022/01/23 08:59:09;;;;;;;7.45;4.57;;;1.80;99.90;;;;;;5129773;28;20208;-75
2022/01/23 09:01:35;;;;;;;6.72;4.95;;;1.90;99.90;;;;;;5111242;28;20230;-75
2022/01/23 09:04:04;;;;;;;7.22;4.35;;;2.00;99.90;;;;;;5111284;28;20202;-75
2022/01/23 09:06:30;;;;;;;6.22;4.07;;;2.20;99.90;;;;;;5111388;28;20162;-74
2022/01/23 09:08:58;;;;;;;9.48;5.28;;;2.40;99.90;;;;;;5108577;28;20210;-77
2022/01/23 09:11:39;;;;;;;6.22;4.30;;;2.90;99.90;;;;;;5129458;28;20204;-74
2022/01/23 09:14:06;;;;;;;9.40;4.88;;;3.50;99.90;;;;;;5111150;28;20173;-76
2022/01/23 09:16:34;;;;;;;10.75;5.47;;;3.80;99.90;;;;;;5129398;28;20210;-75
2022/01/23 09:19:01;;;;;;;6.55;4.78;;;5.30;99.90;;;;;;5129290;28;20250;-75
2022/01/23 09:21:27;;;;;;;10.43;5.65;;;6.90;99.90;;;;;;5129091;28;20175;-74
2022/01/23 09:23:53;;;;;;;8.38;5.45;;;8.50;99.90;;;;;;5125111;28;20182;-75
2022/01/23 09:26:22;;;;;;;6.13;4.82;;;8.30;99.90;;;;;;5099514;28;20164;-75
2022/01/23 09:28:48;;;;;;;8.38;4.28;;;9.40;99.90;;;;;;5119898;28;20194;-76
2022/01/23 09:31:25;;;;;;;6.95;4.00;;;10.10;99.90;;;;;;5110090;28;20214;-75
2022/01/23 09:33:51;;;;;;;7.53;4.38;;;9.90;99.90;;;;;;5127511;28;20154;-75
2022/01/23 09:36:17;;;;;;;22.15;5.93;;;9.40;99.90;;;;;;5109616;28;20194;-75
2022/01/23 09:38:43;;;;;;;7.10;4.53;;;9.10;99.90;;;;;;5109706;28;20193;-76
2022/01/23 09:41:14;;;;;;;5.43;3.95;;;8.20;99.90;;;;;;5109868;28;20166;-75
2022/01/23 09:43:42;;;;;;;11.05;4.80;;;8.70;99.90;;;;;;5113749;28;20167;-75
2022/01/23 09:46:08;;;;;;;8.05;4.90;;;8.40;99.90;;;;;;5111114;28;20166;-75
2022/01/23 09:48:36;;;;;;;9.13;4.63;;;7.70;99.90;;;;;;5113688;28;20198;-75
2022/01/23 09:51:04;;;;;;;7.05;4.80;;;7.80;99.90;;;;;;5132216;28;20171;-75
2022/01/23 09:53:31;;;;;;;6.30;4.15;;;9.10;99.90;;;;;;5111267;28;20163;-74
2022/01/23 09:56:05;;;;;;;9.35;4.63;;;9.50;99.90;;;;;;5131799;28;20237;-73
2022/01/23 09:58:38;;;;;;;6.45;4.25;;;9.20;99.90;;;;;;5129555;28;20257;-74
2022/01/23 10:01:04;;;;;;;5.70;4.00;;;9.80;99.90;;;;;;5117203;28;20214;-74
2022/01/23 10:03:30;;;;;;;7.75;4.60;;;10.10;99.90;;;;;;5093385;28;20313;-74
2022/01/23 10:05:56;;;;;;;5.07;3.55;;;10.50;99.90;;;;;;5111283;28;20163;-74
2022/01/23 10:08:27;;;;;;;8.25;4.72;;;9.70;99.90;;;;;;5108171;28;20199;-74
2022/01/23 10:10:55;;;;;;;9.23;5.32;;;9.00;99.90;;;;;;5112123;28;20167;-74
2022/01/23 10:13:23;;;;;;;12.35;4.80;;;7.60;99.90;;;;;;5112158;28;20242;-74
2022/01/23 10:15:51;;;;;;;9.45;4.07;;;7.40;99.90;;;;;;5112290;28;20219;-75
2022/01/23 10:18:19;;;;;;;11.80;7.25;;;7.20;99.90;;;;;;5093820;28;20221;-75
2022/01/23 10:20:46;;;;;;;8.68;4.50;;;6.10;99.90;;;;;;5112172;28;20186;-75
2022/01/23 10:23:14;;;;;;;8.30;4.93;;;5.50;99.90;;;;;;5111892;28;20171;-76
2022/01/23 10:25:42;;;;;;;13.00;5.45;;;5.00;99.90;;;;;;5112084;28;20159;-75
2022/01/23 10:28:18;;;;;;;11.63;5.97;;;4.70;99.90;;;;;;5111967;28;20191;-75
2022/01/23 10:30:52;;;;;;;8.90;4.45;;;4.40;99.90;;;;;;5093631;28;20177;-74
2022/01/23 10:33:25;;;;;;;6.65;4.50;;;4.30;99.90;;;;;;5111906;28;20230;-75
2022/01/23 10:36:13;;;;;;;13.82;4.75;;;4.20;99.90;;;;;;5093364;28;20163;-75
2022/01/23 10:38:54;;;;;;;9.13;5.28;;;3.90;99.90;;;;;;5111524;28;20190;-75
2022/01/23 10:49:56;;;;;;;9.20;5.07;;;4.10;99.90;;;;;;5111563;28;20448;-74
2022/01/23 10:52:26;;;;;;;6.22;4.60;;;4.20;99.90;;;;;;5111377;28;20205;-75
2022/01/23 10:54:52;;;;;;;9.63;4.20;;;3.80;99.90;;;;;;5110842;28;20175;-74
2022/01/23 10:57:17;;;;;;;11.30;4.32;;;3.70;99.90;;;;;;5092966;28;20195;-75
2022/01/23 10:59:46;;;;;;;6.35;5.45;;;4.00;99.90;;;;;;5114165;28;20268;-75
2022/01/23 11:02:15;;;;;;;12.40;6.43;;;4.00;99.90;;;;;;5131710;28;20163;-75
2022/01/23 11:05:01;;;;;;;13.02;4.90;;;3.80;99.90;;;;;;5131866;28;20151;-75
2022/01/23 11:07:28;;;;;;;7.75;4.75;;;3.80;99.90;;;;;;5113422;28;20166;-74
2022/01/23 11:10:07;;;;;;;15.00;5.55;;;4.20;99.90;;;;;;5113230;28;20170;-75
2022/01/23 11:18:15;;;;;;;13.77;5.80;;;4.30;99.90;;;;;;5139080;27;20212;-75
2022/01/23 11:20:44;;;;;;;9.63;5.78;;;4.40;99.90;;;;;;5115395;28;20257;-75
2022/01/23 11:23:13;;;;;;;19.88;6.03;;;4.70;99.90;;;;;;5131033;28;20177;-74
2022/01/23 11:25:41;;;;;;;10.45;5.97;;;4.90;99.90;;;;;;5131010;28;20163;-74
2022/01/23 11:28:07;;;;;;;8.40;5.05;;;5.00;99.90;;;;;;5109740;28;20190;-74
2022/01/23 11:30:46;;;;;;;7.30;5.18;;;5.00;99.90;;;;;;5131036;28;20155;-75
2022/01/23 11:33:16;;;;;;;7.15;5.05;;;5.00;99.90;;;;;;5131260;28;20143;-75
2022/01/23 11:35:43;;;;;;;12.27;5.38;;;5.10;99.90;;;;;;5131152;28;20525;-74
2022/01/23 11:38:13;;;;;;;10.80;5.72;;;5.10;99.90;;;;;;5137863;27;20193;-74
2022/01/23 11:54:41;;;;;;;8.93;5.63;;;5.40;99.90;;;;;;5130858;28;20157;-73
2022/01/23 11:57:35;;;;;;;13.05;5.13;;;5.80;99.90;;;;;;5130156;28;20201;-74
2022/01/23 12:00:07;;;;;;;10.93;5.88;;;5.70;99.90;;;;;;5130427;28;20214;-73
2022/01/23 12:02:38;;;;;;;13.88;6.20;;;5.50;99.90;;;;;;5130542;28;20537;-74
2022/01/23 12:05:15;;;;;;;10.32;5.18;;;6.10;99.90;;;;;;5129615;28;20155;-74
2022/01/23 12:07:42;;;;;;;11.30;5.25;;;6.60;99.90;;;;;;5130387;28;20166;-74
2022/01/23 12:10:08;;;;;;;9.95;5.30;;;6.40;99.90;;;;;;5112088;28;20171;-74
2022/01/23 12:12:44;;;;;;;9.57;5.88;;;6.20;99.90;;;;;;5130681;28;20226;-73
2022/01/23 12:18:20;;;;;;;12.98;6.70;;;6.60;99.90;;;;;;5130132;28;20693;-74
2022/01/23 12:20:48;;;;;;;15.57;5.72;;;7.70;99.90;;;;;;5130043;28;20207;-74
2022/01/23 12:23:15;;;;;;;7.72;5.95;;;8.10;99.90;;;;;;5111837;28;20261;-72
2022/01/23 12:25:46;;;;;;;10.13;5.35;;;8.50;99.90;;;;;;5130283;28;20172;-74
2022/01/23 12:28:25;;;;;;;11.43;6.15;;;8.90;99.90;;;;;;5129745;28;20187;-75
2022/01/23 12:30:55;;;;;;;14.02;5.78;;;9.80;99.90;;;;;;5129726;28;20154;-75
2022/01/23 12:33:43;;;;;;;8.77;5.88;;;10.70;99.90;;;;;;5129984;28;20159;-75
2022/01/23 12:36:15;;;;;;;6.70;4.97;;;10.80;99.90;;;;;;5129926;28;20216;-74
2022/01/23 12:39:07;;;;;;;8.57;5.68;;;10.70;99.90;;;;;;5111673;28;20663;-74
2022/01/23 12:41:51;;;;;;;10.32;5.65;;;9.90;99.90;;;;;;5100951;28;20201;-74
2022/01/23 12:44:23;;;;;;;6.38;4.97;;;9.40;99.90;;;;;;5129963;28;20236;-75
2022/01/23 12:46:50;;;;;;;10.95;4.78;;;8.60;99.90;;;;;;5111767;28;20166;-74
2022/01/23 12:49:30;;;;;;;9.65;5.38;;;8.10;99.90;;;;;;5111518;28;20190;-74
2022/01/23 12:52:08;;;;;;;9.68;5.05;;;7.80;99.90;;;;;;5129557;28;20162;-73
2022/01/23 12:54:46;;;;;;;8.02;5.13;;;8.00;99.90;;;;;;5129693;28;20167;-74
2022/01/23 12:57:15;;;;;;;8.25;4.78;;;8.00;99.90;;;;;;5129593;28;20186;-73
2022/01/23 12:59:43;;;;;;;12.20;6.32;;;7.70;99.90;;;;;;5110898;28;20194;-72
2022/01/23 13:02:16;;;;;;;6.25;4.47;;;7.50;99.90;;;;;;5129628;28;20190;-73
2022/01/23 13:04:54;;;;;;;9.90;6.15;;;7.60;99.90;;;;;;5129633;28;20203;-72
2022/01/23 13:10:27;;;;;;;12.13;5.93;;;7.40;99.90;;;;;;5129755;28;20194;-72
2022/01/23 13:31:53;;;;;;;11.27;5.00;;;6.80;99.90;;;;;;5133765;28;20165;-73
2022/01/23 13:34:45;;;;;;;20.25;10.05;;;6.60;99.90;;;;;;5133439;28;20155;-74
2022/01/23 13:37:14;;;;;;;16.80;8.02;;;6.50;99.90;;;;;;5114977;28;20200;-73
2022/01/23 13:39:59;;;;;;;11.93;5.45;;;6.60;99.90;;;;;;5133143;28;20222;-73
2022/01/23 14:00:15;;;;;;;10.45;6.45;;;6.10;99.90;;;;;;5132721;28;20208;-73
2022/01/23 14:02:46;;;;;;;11.65;6.07;;;5.90;99.90;;;;;;5069957;28;20216;-73
2022/01/23 14:05:27;;;;;;;13.00;7.30;;;5.60;99.90;;;;;;5069766;28;20185;-73
2022/01/23 14:07:55;;;;;;;9.55;5.72;;;5.50;99.90;;;;;;5053241;28;20179;-72
2022/01/23 14:10:31;;;;;;;12.13;5.68;;;5.60;99.90;;;;;;5069825;28;20169;-74
2022/01/23 14:13:08;;;;;;;9.00;6.03;;;5.60;99.90;;;;;;5069813;28;20836;-75
2022/01/23 14:15:35;;;;;;;10.45;5.80;;;5.70;99.90;;;;;;5053076;28;20179;-73
2022/01/23 14:18:02;;;;;;;10.07;6.10;;;5.80;99.90;;;;;;5069574;28;20208;-74
2022/01/23 14:20:30;;;;;;;10.32;5.93;;;5.60;99.90;;;;;;5052725;28;20187;-73
2022/01/23 14:22:56;;;;;;;9.10;6.18;;;5.60;99.90;;;;;;5052901;28;20582;-73
2022/01/23 14:25:26;;;;;;;7.95;5.43;;;5.60;99.90;;;;;;5069441;28;20204;-73
2022/01/23 14:28:10;;;;;;;10.05;5.65;;;5.70;99.90;;;;;;5069049;28;20161;-73
2022/01/23 14:30:48;;;;;;;10.48;5.68;;;5.80;99.90;;;;;;5068999;28;20179;-78
2022/01/23 14:33:22;;;;;;;9.45;5.07;;;5.90;99.90;;;;;;5069145;28;20161;-76
2022/01/23 14:35:49;;;;;;;11.88;6.35;;;5.90;99.90;;;;;;5069308;28;20263;-75
2022/01/23 14:38:20;;;;;;;8.85;5.38;;;5.90;99.90;;;;;;5103832;28;20199;-76
2022/01/23 14:40:53;;;;;;;10.20;5.78;;;5.80;99.90;;;;;;5128668;28;20211;-77
2022/01/23 14:43:20;;;;;;;11.35;6.15;;;5.70;99.90;;;;;;5131061;28;20159;-77
2022/01/23 14:45:49;;;;;;;9.00;5.38;;;5.70;99.90;;;;;;5112678;28;20171;-77
2022/01/23 14:48:16;;;;;;;8.93;5.32;;;5.70;99.90;;;;;;5113636;28;20567;-75
2022/01/23 14:50:50;;;;;;;9.02;6.53;;;5.40;99.90;;;;;;5113692;28;20155;-76
2022/01/23 14:53:22;;;;;;;9.68;5.10;;;5.30;99.90;;;;;;5113673;28;20169;-77
2022/01/23 14:55:54;;;;;;;9.15;5.97;;;5.10;99.90;;;;;;5131865;28;20193;-76
2022/01/23 14:58:22;;;;;;;11.23;5.68;;;5.00;99.90;;;;;;5131865;28;20151;-77
2022/01/23 15:00:56;;;;;;;8.57;5.28;;;5.00;99.90;;;;;;5131726;28;20236;-76
2022/01/23 15:03:25;;;;;;;9.43;5.25;;;4.90;99.90;;;;;;5131859;28;20183;-76
2022/01/23 15:05:52;;;;;;;8.35;5.68;;;5.00;99.90;;;;;;5131697;28;20183;-76
2022/01/23 15:08:22;;;;;;;12.50;6.10;;;5.10;99.90;;;;;;5131658;28;20158;-77
2022/01/23 15:10:50;;;;;;;10.27;6.53;;;5.00;99.90;;;;;;5131713;28;20155;-77
2022/01/23 15:13:16;;;;;;;7.35;4.63;;;5.00;99.90;;;;;;5131655;28;20155;-77
2022/01/23 15:15:43;;;;;;;8.77;5.18;;;4.90;99.90;;;;;;5131453;28;20186;-77
2022/01/23 15:18:09;;;;;;;9.63;5.47;;;5.00;99.90;;;;;;5113241;28;20186;-76
2022/01/23 15:20:35;;;;;;;8.20;5.63;;;4.90;99.90;;;;;;5113014;28;20261;-76
2022/01/23 15:23:04;;;;;;;9.15;5.97;;;4.90;99.90;;;;;;5112917;28;20167;-76
2022/01/23 15:25:31;;;;;;;10.20;6.15;;;4.90;99.90;;;;;;5131358;28;20151;-76
2022/01/23 15:27:57;;;;;;;9.77;5.53;;;4.80;99.90;;;;;;5112901;28;20220;-76
2022/01/23 15:30:25;;;;;;;13.00;6.15;;;4.70;99.90;;;;;;5112848;28;20196;-75
2022/01/23 15:32:54;;;;;;;8.73;5.65;;;4.70;99.90;;;;;;5131447;28;20167;-77
2022/01/23 15:35:21;;;;;;;8.05;4.53;;;4.60;99.90;;;;;;5112758;28;20178;-76
2022/01/23 15:37:48;;;;;;;9.10;5.22;;;4.70;99.90;;;;;;5131096;28;20246;-75
2022/01/23 15:40:16;;;;;;;9.93;5.50;;;4.70;99.90;;;;;;5112515;28;20192;-76
2022/01/23 15:42:45;;;;;;;10.73;5.32;;;4.50;99.90;;;;;;5112515;28;20174;-77
2022/01/23 15:45:12;;;;;;;10.73;5.97;;;4.40;99.90;;;;;;5130632;28;20196;-76
2022/01/23 15:47:39;;;;;;;13.40;5.80;;;4.30;99.90;;;;;;5128644;28;20197;-75
2022/01/23 15:50:08;;;;;;;9.05;5.47;;;4.20;99.90;;;;;;5128472;28;20695;-77
2022/01/23 15:52:34;;;;;;;13.27;5.22;;;4.20;99.90;;;;;;5110156;28;20158;-77
2022/01/23 15:55:00;;;;;;;10.05;5.95;;;4.30;99.90;;;;;;5128853;28;20159;-77
2022/01/23 15:57:26;;;;;;;8.88;6.57;;;4.30;99.90;;;;;;5128773;28;20202;-76
2022/01/23 15:59:52;;;;;;;9.80;5.85;;;4.30;99.90;;;;;;5128107;28;20289;-76
2022/01/23 16:02:18;;;;;;;8.52;5.32;;;4.30;99.90;;;;;;5126863;28;20713;-77
2022/01/23 16:04:44;;;;;;;11.23;5.28;;;4.10;99.90;;;;;;5104746;28;20178;-75
2022/01/23 16:07:16;;;;;;;11.75;6.20;;;4.00;99.90;;;;;;5100751;28;20281;-76
2022/01/23 16:09:43;;;;;;;7.85;5.38;;;4.00;99.90;;;;;;5110028;28;20156;-75
2022/01/23 16:12:10;;;;;;;7.95;5.95;;;3.90;99.90;;;;;;5120698;27;20197;-76
2022/01/23 16:14:36;;;;;;;8.02;5.88;;;3.90;99.90;;;;;;5107874;28;20182;-76
2022/01/23 16:17:03;;;;;;;10.10;6.10;;;3.70;99.90;;;;;;5095205;28;20210;-76
2022/01/23 16:19:29;;;;;;;6.63;4.97;;;3.80;99.90;;;;;;5109552;28;20181;-75
2022/01/23 16:21:55;;;;;;;8.10;6.10;;;3.80;99.90;;;;;;5109576;28;20191;-76
2022/01/23 16:24:25;;;;;;;12.15;7.15;;;3.80;99.90;;;;;;5090377;28;20171;-79
2022/01/23 16:26:52;;;;;;;10.07;6.45;;;3.80;99.90;;;;;;5091332;28;20167;-76
2022/01/23 16:29:21;;;;;;;15.10;6.25;;;3.80;99.90;;;;;;5109525;28;20171;-76
2022/01/23 16:31:50;;;;;;;14.88;6.28;;;3.80;99.90;;;;;;5125766;27;20202;-76
2022/01/23 16:34:17;;;;;;;18.38;6.15;;;3.80;99.90;;;;;;5120641;27;20173;-76
2022/01/23 16:36:43;;;;;;;6.65;5.38;;;3.90;99.90;;;;;;5144680;27;20203;-75
2022/01/23 16:39:15;;;;;;;9.02;5.38;;;3.80;99.90;;;;;;5111547;28;20693;-76
2022/01/23 16:41:41;;;;;;;9.48;5.90;;;3.80;99.90;;;;;;5111405;28;20198;-75